sensor_id;sensor_type;location;lat;lon;timestamp;temperature;humidity
38223;DHT22;24024;51.186;6.458;2023-11-19T00:01:23;13.30;85.00
38223;DHT22;24024;51.186;6.458;2023-11-19T00:03:50;13.30;85.10
38223;DHT22;24024;51.186;6.458;2023-11-19T00:06:17;13.30;85.20
38223;DHT22;24024;51.186;6.458;2023-11-19T00:08:44;13.20;85.60
38223;DHT22;24024;51.186;6.458;2023-11-19T00:11:13;13.30;85.60
38223;DHT22;24024;51.186;6.458;2023-11-19T00:13:44;13.40;85.30
38223;DHT22;24024;51.186;6.458;2023-11-19T00:16:11;13.40;85.10
38223;DHT22;24024;51.186;6.458;2023-11-19T00:18:38;13.50;84.90
38223;DHT22;24024;51.186;6.458;2023-11-19T00:21:08;13.60;84.80
38223;DHT22;24024;51.186;6.458;2023-11-19T00:23:38;13.60;84.50
38223;DHT22;24024;51.186;6.458;2023-11-19T00:26:07;13.50;84.90
38223;DHT22;24024;51.186;6.458;2023-11-19T00:28:35;13.50;85.10
38223;DHT22;24024;51.186;6.458;2023-11-19T00:31:05;13.70;84.60
38223;DHT22;24024;51.186;6.458;2023-11-19T00:33:32;13.60;84.60
38223;DHT22;24024;51.186;6.458;2023-11-19T00:36:01;13.60;84.60
38223;DHT22;24024;51.186;6.458;2023-11-19T00:38:29;13.60;84.70
38223;DHT22;24024;51.186;6.458;2023-11-19T00:40:56;13.60;84.90
38223;DHT22;24024;51.186;6.458;2023-11-19T00:43:22;13.60;85.00
38223;DHT22;24024;51.186;6.458;2023-11-19T00:45:50;13.70;84.90
38223;DHT22;24024;51.186;6.458;2023-11-19T00:48:17;13.60;84.80
38223;DHT22;24024;51.186;6.458;2023-11-19T00:50:44;13.70;84.90
38223;DHT22;24024;51.186;6.458;2023-11-19T00:53:14;13.80;84.70
38223;DHT22;24024;51.186;6.458;2023-11-19T00:55:44;13.80;84.50
38223;DHT22;24024;51.186;6.458;2023-11-19T00:58:13;13.80;84.40
38223;DHT22;24024;51.186;6.458;2023-11-19T01:00:40;13.80;84.80
38223;DHT22;24024;51.186;6.458;2023-11-19T01:03:06;13.80;84.80
38223;DHT22;24024;51.186;6.458;2023-11-19T01:05:34;13.80;84.90
38223;DHT22;24024;51.186;6.458;2023-11-19T01:08:00;13.80;84.80
38223;DHT22;24024;51.186;6.458;2023-11-19T01:10:27;13.80;85.00
38223;DHT22;24024;51.186;6.458;2023-11-19T01:12:55;13.70;85.00
38223;DHT22;24024;51.186;6.458;2023-11-19T01:15:22;13.80;84.90
38223;DHT22;24024;51.186;6.458;2023-11-19T01:17:49;13.80;84.70
38223;DHT22;24024;51.186;6.458;2023-11-19T01:20:21;13.80;84.80
38223;DHT22;24024;51.186;6.458;2023-11-19T01:22:51;13.70;84.90
38223;DHT22;24024;51.186;6.458;2023-11-19T01:25:20;13.80;84.90
38223;DHT22;24024;51.186;6.458;2023-11-19T01:27:47;13.90;84.70
38223;DHT22;24024;51.186;6.458;2023-11-19T01:30:16;14.00;84.10
38223;DHT22;24024;51.186;6.458;2023-11-19T01:32:45;13.90;84.00
38223;DHT22;24024;51.186;6.458;2023-11-19T01:35:12;13.90;84.40
38223;DHT22;24024;51.186;6.458;2023-11-19T01:40:22;13.80;84.70
38223;DHT22;24024;51.186;6.458;2023-11-19T01:42:49;13.80;84.70
38223;DHT22;24024;51.186;6.458;2023-11-19T01:45:27;13.80;84.70
38223;DHT22;24024;51.186;6.458;2023-11-19T01:47:55;13.80;84.40
38223;DHT22;24024;51.186;6.458;2023-11-19T01:50:24;13.90;84.60
38223;DHT22;24024;51.186;6.458;2023-11-19T01:52:53;13.90;84.30
38223;DHT22;24024;51.186;6.458;2023-11-19T01:55:20;13.90;84.20
38223;DHT22;24024;51.186;6.458;2023-11-19T01:57:50;14.00;84.20
38223;DHT22;24024;51.186;6.458;2023-11-19T02:00:18;13.90;84.10
38223;DHT22;24024;51.186;6.458;2023-11-19T02:02:50;14.00;84.20
38223;DHT22;24024;51.186;6.458;2023-11-19T02:05:19;14.10;83.90
38223;DHT22;24024;51.186;6.458;2023-11-19T02:07:45;14.00;84.10
38223;DHT22;24024;51.186;6.458;2023-11-19T02:10:12;14.10;83.90
38223;DHT22;24024;51.186;6.458;2023-11-19T02:12:41;14.10;84.20
38223;DHT22;24024;51.186;6.458;2023-11-19T02:15:11;14.10;84.10
38223;DHT22;24024;51.186;6.458;2023-11-19T02:17:38;14.10;84.10
38223;DHT22;24024;51.186;6.458;2023-11-19T02:20:05;14.20;83.90
38223;DHT22;24024;51.186;6.458;2023-11-19T02:22:36;14.20;83.80
38223;DHT22;24024;51.186;6.458;2023-11-19T02:25:07;14.30;83.60
38223;DHT22;24024;51.186;6.458;2023-11-19T02:27:54;14.30;83.40
38223;DHT22;24024;51.186;6.458;2023-11-19T02:30:25;14.30;83.70
38223;DHT22;24024;51.186;6.458;2023-11-19T02:32:56;14.20;83.50
38223;DHT22;24024;51.186;6.458;2023-11-19T02:35:25;14.30;83.50
38223;DHT22;24024;51.186;6.458;2023-11-19T02:37:57;14.30;83.50
38223;DHT22;24024;51.186;6.458;2023-11-19T02:40:24;14.20;83.20
38223;DHT22;24024;51.186;6.458;2023-11-19T02:42:52;14.20;83.30
38223;DHT22;24024;51.186;6.458;2023-11-19T02:45:19;14.10;83.60
38223;DHT22;24024;51.186;6.458;2023-11-19T02:47:46;14.10;83.60
38223;DHT22;24024;51.186;6.458;2023-11-19T02:50:13;14.20;83.40
38223;DHT22;24024;51.186;6.458;2023-11-19T02:52:45;14.10;83.50
38223;DHT22;24024;51.186;6.458;2023-11-19T02:55:15;14.20;83.50
38223;DHT22;24024;51.186;6.458;2023-11-19T02:57:42;14.20;83.40
38223;DHT22;24024;51.186;6.458;2023-11-19T03:00:19;14.20;83.50
38223;DHT22;24024;51.186;6.458;2023-11-19T03:02:50;14.20;83.40
38223;DHT22;24024;51.186;6.458;2023-11-19T03:05:31;14.20;83.30
38223;DHT22;24024;51.186;6.458;2023-11-19T03:07:58;14.20;83.30
38223;DHT22;24024;51.186;6.458;2023-11-19T03:10:27;14.20;83.40
38223;DHT22;24024;51.186;6.458;2023-11-19T03:12:55;14.10;83.40
38223;DHT22;24024;51.186;6.458;2023-11-19T03:15:23;14.10;83.40
38223;DHT22;24024;51.186;6.458;2023-11-19T03:17:50;14.20;83.20
38223;DHT22;24024;51.186;6.458;2023-11-19T03:20:19;14.30;82.90
38223;DHT22;24024;51.186;6.458;2023-11-19T03:22:49;14.20;82.70
38223;DHT22;24024;51.186;6.458;2023-11-19T03:25:18;14.20;82.80
38223;DHT22;24024;51.186;6.458;2023-11-19T03:27:47;14.10;82.90
38223;DHT22;24024;51.186;6.458;2023-11-19T03:30:14;14.20;82.80
38223;DHT22;24024;51.186;6.458;2023-11-19T03:32:40;14.20;82.30
38223;DHT22;24024;51.186;6.458;2023-11-19T03:35:07;14.10;82.50
38223;DHT22;24024;51.186;6.458;2023-11-19T03:37:35;14.20;82.40
38223;DHT22;24024;51.186;6.458;2023-11-19T03:40:03;14.20;82.00
38223;DHT22;24024;51.186;6.458;2023-11-19T03:42:31;14.10;81.80
38223;DHT22;24024;51.186;6.458;2023-11-19T03:44:57;14.30;81.70
38223;DHT22;24024;51.186;6.458;2023-11-19T03:47:26;14.20;81.40
38223;DHT22;24024;51.186;6.458;2023-11-19T03:49:56;14.20;81.10
38223;DHT22;24024;51.186;6.458;2023-11-19T03:52:22;14.20;80.80
38223;DHT22;24024;51.186;6.458;2023-11-19T03:54:53;14.20;80.70
38223;DHT22;24024;51.186;6.458;2023-11-19T03:57:21;14.20;80.70
38223;DHT22;24024;51.186;6.458;2023-11-19T03:59:49;14.10;80.80
38223;DHT22;24024;51.186;6.458;2023-11-19T04:02:16;14.10;80.60
38223;DHT22;24024;51.186;6.458;2023-11-19T04:04:43;14.10;80.50
38223;DHT22;24024;51.186;6.458;2023-11-19T04:07:10;14.10;80.10
38223;DHT22;24024;51.186;6.458;2023-11-19T04:09:37;14.10;80.50
38223;DHT22;24024;51.186;6.458;2023-11-19T04:12:06;14.20;80.00
38223;DHT22;24024;51.186;6.458;2023-11-19T04:14:33;14.20;80.00
38223;DHT22;24024;51.186;6.458;2023-11-19T04:17:00;14.30;79.80
38223;DHT22;24024;51.186;6.458;2023-11-19T04:19:29;14.30;79.60
38223;DHT22;24024;51.186;6.458;2023-11-19T04:21:56;14.30;79.80
38223;DHT22;24024;51.186;6.458;2023-11-19T04:24:23;14.40;79.30
38223;DHT22;24024;51.186;6.458;2023-11-19T04:26:56;14.20;79.70
38223;DHT22;24024;51.186;6.458;2023-11-19T04:29:23;14.10;80.00
38223;DHT22;24024;51.186;6.458;2023-11-19T04:31:52;14.10;80.10
38223;DHT22;24024;51.186;6.458;2023-11-19T04:34:19;14.10;80.40
38223;DHT22;24024;51.186;6.458;2023-11-19T04:36:45;14.00;80.70
38223;DHT22;24024;51.186;6.458;2023-11-19T04:39:12;13.90;80.90
38223;DHT22;24024;51.186;6.458;2023-11-19T04:41:48;13.90;81.10
38223;DHT22;24024;51.186;6.458;2023-11-19T04:44:16;13.90;81.00
38223;DHT22;24024;51.186;6.458;2023-11-19T04:46:44;13.80;80.90
38223;DHT22;24024;51.186;6.458;2023-11-19T04:49:16;13.90;80.90
38223;DHT22;24024;51.186;6.458;2023-11-19T04:51:45;14.00;80.50
38223;DHT22;24024;51.186;6.458;2023-11-19T04:54:16;13.90;80.40
38223;DHT22;24024;51.186;6.458;2023-11-19T04:56:45;13.80;80.40
38223;DHT22;24024;51.186;6.458;2023-11-19T04:59:12;13.80;80.40
38223;DHT22;24024;51.186;6.458;2023-11-19T05:01:39;13.80;80.20
38223;DHT22;24024;51.186;6.458;2023-11-19T05:04:07;13.80;80.00
38223;DHT22;24024;51.186;6.458;2023-11-19T05:06:34;13.90;79.80
38223;DHT22;24024;51.186;6.458;2023-11-19T05:09:02;13.80;79.80
38223;DHT22;24024;51.186;6.458;2023-11-19T05:11:38;13.80;80.00
38223;DHT22;24024;51.186;6.458;2023-11-19T05:14:17;13.70;80.20
38223;DHT22;24024;51.186;6.458;2023-11-19T05:16:46;13.70;80.20
38223;DHT22;24024;51.186;6.458;2023-11-19T05:19:13;13.80;80.00
38223;DHT22;24024;51.186;6.458;2023-11-19T05:21:46;13.80;79.80
38223;DHT22;24024;51.186;6.458;2023-11-19T05:24:12;13.70;80.00
38223;DHT22;24024;51.186;6.458;2023-11-19T05:26:39;13.70;79.80
38223;DHT22;24024;51.186;6.458;2023-11-19T05:29:06;13.60;79.80
38223;DHT22;24024;51.186;6.458;2023-11-19T05:31:33;13.70;79.80
38223;DHT22;24024;51.186;6.458;2023-11-19T05:34:03;13.60;79.60
38223;DHT22;24024;51.186;6.458;2023-11-19T05:36:30;13.70;79.60
38223;DHT22;24024;51.186;6.458;2023-11-19T05:38:57;13.70;79.40
38223;DHT22;24024;51.186;6.458;2023-11-19T05:41:24;13.80;79.10
38223;DHT22;24024;51.186;6.458;2023-11-19T05:43:50;13.80;79.10
38223;DHT22;24024;51.186;6.458;2023-11-19T05:46:18;13.80;78.80
38223;DHT22;24024;51.186;6.458;2023-11-19T05:48:49;13.80;78.80
38223;DHT22;24024;51.186;6.458;2023-11-19T05:51:15;13.80;78.80
38223;DHT22;24024;51.186;6.458;2023-11-19T05:53:42;13.70;78.80
38223;DHT22;24024;51.186;6.458;2023-11-19T05:56:09;13.90;78.70
38223;DHT22;24024;51.186;6.458;2023-11-19T05:58:37;13.70;78.30
38223;DHT22;24024;51.186;6.458;2023-11-19T06:01:11;13.60;78.50
38223;DHT22;24024;51.186;6.458;2023-11-19T06:03:38;13.60;78.60
38223;DHT22;24024;51.186;6.458;2023-11-19T06:06:07;13.60;78.40
38223;DHT22;24024;51.186;6.458;2023-11-19T06:08:37;13.70;78.00
38223;DHT22;24024;51.186;6.458;2023-11-19T06:11:04;13.70;78.00
38223;DHT22;24024;51.186;6.458;2023-11-19T06:13:34;13.60;77.80
38223;DHT22;24024;51.186;6.458;2023-11-19T06:16:03;13.60;77.70
38223;DHT22;24024;51.186;6.458;2023-11-19T06:18:30;13.60;77.50
38223;DHT22;24024;51.186;6.458;2023-11-19T06:20:58;13.50;77.30
38223;DHT22;24024;51.186;6.458;2023-11-19T06:23:24;13.50;77.00
38223;DHT22;24024;51.186;6.458;2023-11-19T06:25:51;13.50;77.10
38223;DHT22;24024;51.186;6.458;2023-11-19T06:28:20;13.50;77.00
38223;DHT22;24024;51.186;6.458;2023-11-19T06:30:47;13.50;77.10
38223;DHT22;24024;51.186;6.458;2023-11-19T06:33:15;13.50;76.80
38223;DHT22;24024;51.186;6.458;2023-11-19T06:35:42;13.50;76.80
38223;DHT22;24024;51.186;6.458;2023-11-19T06:38:08;13.50;77.00
38223;DHT22;24024;51.186;6.458;2023-11-19T06:40:37;13.70;76.70
38223;DHT22;24024;51.186;6.458;2023-11-19T06:43:04;13.60;76.30
38223;DHT22;24024;51.186;6.458;2023-11-19T06:45:32;13.60;76.30
38223;DHT22;24024;51.186;6.458;2023-11-19T06:48:01;13.50;76.10
38223;DHT22;24024;51.186;6.458;2023-11-19T06:50:32;13.50;76.40
38223;DHT22;24024;51.186;6.458;2023-11-19T06:52:59;13.50;75.90
38223;DHT22;24024;51.186;6.458;2023-11-19T06:55:26;13.50;75.90
38223;DHT22;24024;51.186;6.458;2023-11-19T06:57:53;13.50;75.40
38223;DHT22;24024;51.186;6.458;2023-11-19T07:00:22;13.50;75.70
38223;DHT22;24024;51.186;6.458;2023-11-19T07:02:52;13.30;76.30
38223;DHT22;24024;51.186;6.458;2023-11-19T07:05:19;13.40;76.40
38223;DHT22;24024;51.186;6.458;2023-11-19T07:07:48;13.50;76.20
38223;DHT22;24024;51.186;6.458;2023-11-19T07:10:14;13.50;76.10
38223;DHT22;24024;51.186;6.458;2023-11-19T07:12:42;13.60;75.80
38223;DHT22;24024;51.186;6.458;2023-11-19T07:15:11;13.60;75.80
38223;DHT22;24024;51.186;6.458;2023-11-19T07:17:40;13.70;75.00
38223;DHT22;24024;51.186;6.458;2023-11-19T07:20:07;13.80;74.90
38223;DHT22;24024;51.186;6.458;2023-11-19T07:22:34;13.80;74.40
38223;DHT22;24024;51.186;6.458;2023-11-19T07:25:05;13.60;74.60
38223;DHT22;24024;51.186;6.458;2023-11-19T07:27:34;13.50;75.10
38223;DHT22;24024;51.186;6.458;2023-11-19T07:30:01;13.50;75.30
38223;DHT22;24024;51.186;6.458;2023-11-19T07:32:28;13.50;75.30
38223;DHT22;24024;51.186;6.458;2023-11-19T07:34:54;13.50;75.00
38223;DHT22;24024;51.186;6.458;2023-11-19T07:37:22;13.50;75.00
38223;DHT22;24024;51.186;6.458;2023-11-19T07:39:49;13.40;75.00
38223;DHT22;24024;51.186;6.458;2023-11-19T07:42:16;13.30;75.20
38223;DHT22;24024;51.186;6.458;2023-11-19T07:44:45;13.30;75.50
38223;DHT22;24024;51.186;6.458;2023-11-19T07:47:15;13.40;75.40
38223;DHT22;24024;51.186;6.458;2023-11-19T07:49:44;13.40;75.60
38223;DHT22;24024;51.186;6.458;2023-11-19T07:52:12;13.50;75.50
38223;DHT22;24024;51.186;6.458;2023-11-19T07:54:42;13.50;75.20
38223;DHT22;24024;51.186;6.458;2023-11-19T07:57:11;13.50;75.20
38223;DHT22;24024;51.186;6.458;2023-11-19T07:59:40;13.40;75.40
38223;DHT22;24024;51.186;6.458;2023-11-19T08:02:07;13.40;75.80
38223;DHT22;24024;51.186;6.458;2023-11-19T08:04:36;13.30;76.00
38223;DHT22;24024;51.186;6.458;2023-11-19T08:07:06;13.40;75.90
38223;DHT22;24024;51.186;6.458;2023-11-19T08:09:33;13.30;76.00
38223;DHT22;24024;51.186;6.458;2023-11-19T08:12:03;13.30;76.00
38223;DHT22;24024;51.186;6.458;2023-11-19T08:14:30;13.40;76.00
38223;DHT22;24024;51.186;6.458;2023-11-19T08:16:59;13.40;76.20
38223;DHT22;24024;51.186;6.458;2023-11-19T08:19:26;13.30;76.20
38223;DHT22;24024;51.186;6.458;2023-11-19T08:21:56;13.50;75.90
38223;DHT22;24024;51.186;6.458;2023-11-19T08:24:22;13.40;75.80
38223;DHT22;24024;51.186;6.458;2023-11-19T08:26:49;13.50;75.90
38223;DHT22;24024;51.186;6.458;2023-11-19T08:29:21;13.30;76.00
38223;DHT22;24024;51.186;6.458;2023-11-19T08:31:48;13.40;76.10
38223;DHT22;24024;51.186;6.458;2023-11-19T08:34:14;13.50;75.70
38223;DHT22;24024;51.186;6.458;2023-11-19T08:36:42;13.50;75.70
38223;DHT22;24024;51.186;6.458;2023-11-19T08:39:12;13.40;75.30
38223;DHT22;24024;51.186;6.458;2023-11-19T08:41:41;13.50;75.60
38223;DHT22;24024;51.186;6.458;2023-11-19T08:44:08;13.50;75.20
38223;DHT22;24024;51.186;6.458;2023-11-19T08:46:35;13.50;75.20
38223;DHT22;24024;51.186;6.458;2023-11-19T08:49:01;13.50;75.30
38223;DHT22;24024;51.186;6.458;2023-11-19T08:51:29;13.60;74.90
38223;DHT22;24024;51.186;6.458;2023-11-19T08:53:58;13.60;75.00
38223;DHT22;24024;51.186;6.458;2023-11-19T08:56:25;13.70;74.50
38223;DHT22;24024;51.186;6.458;2023-11-19T08:58:54;13.60;74.60
38223;DHT22;24024;51.186;6.458;2023-11-19T09:01:21;13.60;74.30
38223;DHT22;24024;51.186;6.458;2023-11-19T09:03:47;13.60;74.50
38223;DHT22;24024;51.186;6.458;2023-11-19T09:06:14;13.60;74.50
38223;DHT22;24024;51.186;6.458;2023-11-19T09:08:43;13.60;74.50
38223;DHT22;24024;51.186;6.458;2023-11-19T09:11:10;13.60;74.60
38223;DHT22;24024;51.186;6.458;2023-11-19T09:13:38;13.60;74.60
38223;DHT22;24024;51.186;6.458;2023-11-19T09:16:05;13.70;74.10
38223;DHT22;24024;51.186;6.458;2023-11-19T09:18:32;13.60;74.20
38223;DHT22;24024;51.186;6.458;2023-11-19T09:20:59;13.60;74.20
38223;DHT22;24024;51.186;6.458;2023-11-19T09:23:29;13.60;74.30
38223;DHT22;24024;51.186;6.458;2023-11-19T09:26:01;13.60;74.40
38223;DHT22;24024;51.186;6.458;2023-11-19T09:28:28;13.60;74.40
38223;DHT22;24024;51.186;6.458;2023-11-19T09:30:57;13.50;74.40
38223;DHT22;24024;51.186;6.458;2023-11-19T09:33:24;13.60;74.50
38223;DHT22;24024;51.186;6.458;2023-11-19T09:35:53;13.60;74.00
38223;DHT22;24024;51.186;6.458;2023-11-19T09:38:20;13.60;73.80
38223;DHT22;24024;51.186;6.458;2023-11-19T09:40:46;13.60;73.90
38223;DHT22;24024;51.186;6.458;2023-11-19T09:43:15;13.60;73.90
38223;DHT22;24024;51.186;6.458;2023-11-19T09:45:49;13.60;73.50
38223;DHT22;24024;51.186;6.458;2023-11-19T09:48:17;13.70;73.40
38223;DHT22;24024;51.186;6.458;2023-11-19T09:50:46;13.70;73.40
38223;DHT22;24024;51.186;6.458;2023-11-19T09:53:16;13.60;73.50
38223;DHT22;24024;51.186;6.458;2023-11-19T09:55:43;13.80;73.30
38223;DHT22;24024;51.186;6.458;2023-11-19T09:58:12;13.80;73.10
38223;DHT22;24024;51.186;6.458;2023-11-19T10:00:40;13.80;73.10
38223;DHT22;24024;51.186;6.458;2023-11-19T10:03:11;13.80;73.20
38223;DHT22;24024;51.186;6.458;2023-11-19T10:05:39;13.70;73.40
38223;DHT22;24024;51.186;6.458;2023-11-19T10:08:07;13.70;73.50
38223;DHT22;24024;51.186;6.458;2023-11-19T10:10:34;13.80;73.40
38223;DHT22;24024;51.186;6.458;2023-11-19T10:13:01;13.80;73.50
38223;DHT22;24024;51.186;6.458;2023-11-19T10:15:36;13.90;73.10
38223;DHT22;24024;51.186;6.458;2023-11-19T10:18:04;13.90;73.10
38223;DHT22;24024;51.186;6.458;2023-11-19T10:20:37;13.90;72.80
38223;DHT22;24024;51.186;6.458;2023-11-19T10:23:04;13.90;72.90
38223;DHT22;24024;51.186;6.458;2023-11-19T10:25:31;14.00;72.40
38223;DHT22;24024;51.186;6.458;2023-11-19T10:27:59;13.90;72.20
38223;DHT22;24024;51.186;6.458;2023-11-19T10:30:27;14.00;72.10
38223;DHT22;24024;51.186;6.458;2023-11-19T10:33:13;14.10;71.90
38223;DHT22;24024;51.186;6.458;2023-11-19T10:35:53;14.00;72.00
38223;DHT22;24024;51.186;6.458;2023-11-19T10:38:26;14.10;71.60
38223;DHT22;24024;51.186;6.458;2023-11-19T10:40:53;14.20;71.60
38223;DHT22;24024;51.186;6.458;2023-11-19T10:43:22;14.20;71.00
38223;DHT22;24024;51.186;6.458;2023-11-19T10:45:54;14.20;71.30
38223;DHT22;24024;51.186;6.458;2023-11-19T10:48:35;14.30;71.50
38223;DHT22;24024;51.186;6.458;2023-11-19T10:51:05;14.20;70.80
38223;DHT22;24024;51.186;6.458;2023-11-19T10:53:36;14.30;70.90
38223;DHT22;24024;51.186;6.458;2023-11-19T10:56:10;14.20;70.80
38223;DHT22;24024;51.186;6.458;2023-11-19T10:58:42;14.20;70.50
38223;DHT22;24024;51.186;6.458;2023-11-19T11:01:19;14.20;70.70
38223;DHT22;24024;51.186;6.458;2023-11-19T11:03:51;14.30;70.30
38223;DHT22;24024;51.186;6.458;2023-11-19T11:06:23;14.40;70.20
38223;DHT22;24024;51.186;6.458;2023-11-19T11:08:53;14.30;70.10
38223;DHT22;24024;51.186;6.458;2023-11-19T11:11:20;14.40;70.20
38223;DHT22;24024;51.186;6.458;2023-11-19T11:13:49;14.50;70.10
38223;DHT22;24024;51.186;6.458;2023-11-19T11:16:20;14.50;70.10
38223;DHT22;24024;51.186;6.458;2023-11-19T11:18:49;14.60;70.50
38223;DHT22;24024;51.186;6.458;2023-11-19T11:21:22;14.60;70.00
38223;DHT22;24024;51.186;6.458;2023-11-19T11:29:33;14.60;69.80
38223;DHT22;24024;51.186;6.458;2023-11-19T11:32:45;14.60;69.90
38223;DHT22;24024;51.186;6.458;2023-11-19T11:35:16;14.60;69.60
38223;DHT22;24024;51.186;6.458;2023-11-19T11:37:52;14.70;69.70
38223;DHT22;24024;51.186;6.458;2023-11-19T11:40:21;14.60;69.80
38223;DHT22;24024;51.186;6.458;2023-11-19T11:42:50;14.60;69.70
38223;DHT22;24024;51.186;6.458;2023-11-19T11:45:19;14.60;69.60
38223;DHT22;24024;51.186;6.458;2023-11-19T11:48:12;14.60;69.60
38223;DHT22;24024;51.186;6.458;2023-11-19T11:50:56;14.60;68.60
38223;DHT22;24024;51.186;6.458;2023-11-19T11:53:26;14.60;68.20
38223;DHT22;24024;51.186;6.458;2023-11-19T11:55:54;14.60;68.10
38223;DHT22;24024;51.186;6.458;2023-11-19T11:58:27;14.60;68.50
38223;DHT22;24024;51.186;6.458;2023-11-19T12:00:53;14.60;68.10
38223;DHT22;24024;51.186;6.458;2023-11-19T12:03:21;14.60;68.10
38223;DHT22;24024;51.186;6.458;2023-11-19T12:05:55;14.60;68.40
38223;DHT22;24024;51.186;6.458;2023-11-19T12:08:26;14.60;68.60
38223;DHT22;24024;51.186;6.458;2023-11-19T12:10:57;14.50;69.00
38223;DHT22;24024;51.186;6.458;2023-11-19T12:13:29;14.60;69.20
38223;DHT22;24024;51.186;6.458;2023-11-19T12:16:09;14.60;69.10
38223;DHT22;24024;51.186;6.458;2023-11-19T12:18:39;14.60;68.90
38223;DHT22;24024;51.186;6.458;2023-11-19T12:21:07;14.60;69.00
38223;DHT22;24024;51.186;6.458;2023-11-19T12:23:44;14.60;69.40
38223;DHT22;24024;51.186;6.458;2023-11-19T12:26:31;14.60;70.00
38223;DHT22;24024;51.186;6.458;2023-11-19T12:29:03;14.60;71.10
38223;DHT22;24024;51.186;6.458;2023-11-19T12:31:36;14.60;71.80
38223;DHT22;24024;51.186;6.458;2023-11-19T12:34:07;14.50;71.80
38223;DHT22;24024;51.186;6.458;2023-11-19T12:36:39;14.50;72.10
38223;DHT22;24024;51.186;6.458;2023-11-19T12:39:07;14.40;72.40
38223;DHT22;24024;51.186;6.458;2023-11-19T12:41:51;14.50;72.30
38223;DHT22;24024;51.186;6.458;2023-11-19T12:44:20;14.50;72.70
38223;DHT22;24024;51.186;6.458;2023-11-19T12:47:08;14.60;72.30
38223;DHT22;24024;51.186;6.458;2023-11-19T12:49:37;14.60;72.10
38223;DHT22;24024;51.186;6.458;2023-11-19T12:52:13;14.50;72.00
38223;DHT22;24024;51.186;6.458;2023-11-19T12:54:39;14.30;72.30
38223;DHT22;24024;51.186;6.458;2023-11-19T12:57:06;14.40;72.50
38223;DHT22;24024;51.186;6.458;2023-11-19T12:59:34;14.50;72.60
38223;DHT22;24024;51.186;6.458;2023-11-19T13:02:03;14.60;72.60
38223;DHT22;24024;51.186;6.458;2023-11-19T13:04:33;14.60;72.00
38223;DHT22;24024;51.186;6.458;2023-11-19T13:07:00;14.70;72.10
38223;DHT22;24024;51.186;6.458;2023-11-19T13:09:30;14.80;71.50
38223;DHT22;24024;51.186;6.458;2023-11-19T13:11:57;14.80;71.50
38223;DHT22;24024;51.186;6.458;2023-11-19T13:14:36;14.90;71.60
38223;DHT22;24024;51.186;6.458;2023-11-19T13:17:06;14.90;70.50
38223;DHT22;24024;51.186;6.458;2023-11-19T13:19:33;14.90;70.50
38223;DHT22;24024;51.186;6.458;2023-11-19T13:22:00;15.00;70.30
38223;DHT22;24024;51.186;6.458;2023-11-19T13:24:27;15.20;70.40
38223;DHT22;24024;51.186;6.458;2023-11-19T13:26:53;15.30;70.00
38223;DHT22;24024;51.186;6.458;2023-11-19T13:29:20;15.20;69.20
38223;DHT22;24024;51.186;6.458;2023-11-19T13:31:47;15.30;69.30
38223;DHT22;24024;51.186;6.458;2023-11-19T13:34:15;15.10;69.40
38223;DHT22;24024;51.186;6.458;2023-11-19T13:36:41;15.10;69.30
38223;DHT22;24024;51.186;6.458;2023-11-19T13:39:13;15.00;69.00
38223;DHT22;24024;51.186;6.458;2023-11-19T13:41:41;15.00;69.20
38223;DHT22;24024;51.186;6.458;2023-11-19T13:44:08;14.90;69.60
38223;DHT22;24024;51.186;6.458;2023-11-19T13:46:37;14.90;69.30
38223;DHT22;24024;51.186;6.458;2023-11-19T13:49:05;14.90;68.80
38223;DHT22;24024;51.186;6.458;2023-11-19T13:51:32;14.80;68.60
38223;DHT22;24024;51.186;6.458;2023-11-19T13:54:02;14.80;68.90
38223;DHT22;24024;51.186;6.458;2023-11-19T13:56:28;14.80;68.70
38223;DHT22;24024;51.186;6.458;2023-11-19T13:58:55;14.70;69.20
38223;DHT22;24024;51.186;6.458;2023-11-19T14:01:22;14.70;69.20
38223;DHT22;24024;51.186;6.458;2023-11-19T14:03:52;14.60;69.50
38223;DHT22;24024;51.186;6.458;2023-11-19T14:06:22;14.60;70.20
38223;DHT22;24024;51.186;6.458;2023-11-19T14:08:51;14.60;70.60
38223;DHT22;24024;51.186;6.458;2023-11-19T14:11:19;14.50;70.60
38223;DHT22;24024;51.186;6.458;2023-11-19T14:13:46;14.60;71.20
38223;DHT22;24024;51.186;6.458;2023-11-19T14:16:13;14.70;71.20
38223;DHT22;24024;51.186;6.458;2023-11-19T14:18:41;14.80;71.60
38223;DHT22;24024;51.186;6.458;2023-11-19T14:21:10;14.60;72.40
38223;DHT22;24024;51.186;6.458;2023-11-19T14:23:37;14.70;72.50
38223;DHT22;24024;51.186;6.458;2023-11-19T14:26:04;14.60;73.10
38223;DHT22;24024;51.186;6.458;2023-11-19T14:28:31;14.70;73.10
38223;DHT22;24024;51.186;6.458;2023-11-19T14:30:57;14.90;72.50
38223;DHT22;24024;51.186;6.458;2023-11-19T14:33:27;14.90;72.50
38223;DHT22;24024;51.186;6.458;2023-11-19T14:35:53;15.00;72.30
38223;DHT22;24024;51.186;6.458;2023-11-19T14:38:20;14.90;72.40
38223;DHT22;24024;51.186;6.458;2023-11-19T14:40:49;14.80;72.40
38223;DHT22;24024;51.186;6.458;2023-11-19T14:43:16;14.80;72.60
38223;DHT22;24024;51.186;6.458;2023-11-19T14:45:43;14.60;72.00
38223;DHT22;24024;51.186;6.458;2023-11-19T14:48:16;14.50;72.40
38223;DHT22;24024;51.186;6.458;2023-11-19T14:50:44;14.40;72.60
38223;DHT22;24024;51.186;6.458;2023-11-19T14:53:11;14.30;72.40
38223;DHT22;24024;51.186;6.458;2023-11-19T14:55:38;14.10;72.50
38223;DHT22;24024;51.186;6.458;2023-11-19T14:58:05;14.00;73.60
38223;DHT22;24024;51.186;6.458;2023-11-19T15:00:37;13.90;74.40
38223;DHT22;24024;51.186;6.458;2023-11-19T15:03:06;13.80;75.20
38223;DHT22;24024;51.186;6.458;2023-11-19T15:05:37;13.70;75.80
38223;DHT22;24024;51.186;6.458;2023-11-19T15:08:04;13.80;75.60
38223;DHT22;24024;51.186;6.458;2023-11-19T15:10:31;13.80;75.70
38223;DHT22;24024;51.186;6.458;2023-11-19T15:12:58;13.60;75.90
38223;DHT22;24024;51.186;6.458;2023-11-19T15:15:25;13.70;76.00
38223;DHT22;24024;51.186;6.458;2023-11-19T15:17:57;13.80;75.70
38223;DHT22;24024;51.186;6.458;2023-11-19T15:20:24;13.80;75.40
38223;DHT22;24024;51.186;6.458;2023-11-19T15:22:50;13.80;75.60
38223;DHT22;24024;51.186;6.458;2023-11-19T15:25:17;13.90;75.20
38223;DHT22;24024;51.186;6.458;2023-11-19T15:27:44;14.00;74.70
38223;DHT22;24024;51.186;6.458;2023-11-19T15:30:11;13.90;74.50
38223;DHT22;24024;51.186;6.458;2023-11-19T15:32:41;13.80;75.00
38223;DHT22;24024;51.186;6.458;2023-11-19T15:35:10;13.70;75.00
38223;DHT22;24024;51.186;6.458;2023-11-19T15:37:40;13.80;74.80
38223;DHT22;24024;51.186;6.458;2023-11-19T15:40:12;13.60;74.90
38223;DHT22;24024;51.186;6.458;2023-11-19T15:42:40;13.70;74.70
38223;DHT22;24024;51.186;6.458;2023-11-19T15:45:12;13.80;74.60
38223;DHT22;24024;51.186;6.458;2023-11-19T15:47:39;13.70;74.50
38223;DHT22;24024;51.186;6.458;2023-11-19T15:50:06;13.80;74.00